Aviation Digital Data Service (ADDS)

Output produced by METARs form (0044 UTC 24 May 2022)
found at http://www.aviationweather.gov/metar/data/
 
TAF TBPB 232300Z 2400/2424 10015KT 9999 SCT022